Time;durP1;ratioP1;P1;durP2;ratioP2;P2;SDS_P1;SDS_P2;PMS_P1;PMS_P2;Temp;Humidity;BMP_temperature;BMP_pressure;BME280_temperature;BME280_humidity;BME280_pressure;Samples;Min_cycle;Max_cycle;Signal;HPM_P1;HPM_P2
2021/07/12 00:01:54;;;;;;;9.27;8.38;;;19.40;99.90;;;;;;4999067;28;20047;-67
2021/07/12 00:04:20;;;;;;;9.02;8.05;;;19.50;99.90;;;;;;4992929;28;20042;-67
2021/07/12 00:06:46;;;;;;;11.38;8.80;;;19.40;99.90;;;;;;5004255;28;20054;-67
2021/07/12 00:09:11;;;;;;;8.93;8.13;;;19.40;99.90;;;;;;4990275;28;20046;-67
2021/07/12 00:11:37;;;;;;;10.10;8.70;;;19.30;99.90;;;;;;5002521;28;20320;-67
2021/07/12 00:14:03;;;;;;;8.68;7.90;;;19.20;99.90;;;;;;5003777;28;20038;-67
2021/07/12 00:16:29;;;;;;;11.73;8.70;;;19.10;99.90;;;;;;4987629;28;20038;-67
2021/07/12 00:18:55;;;;;;;9.73;8.73;;;19.00;99.90;;;;;;4995607;28;20046;-67
2021/07/12 00:21:21;;;;;;;9.13;8.20;;;19.00;99.90;;;;;;5001050;28;20043;-67
2021/07/12 00:23:49;;;;;;;10.43;8.68;;;18.90;99.90;;;;;;4997249;28;20061;-68
2021/07/12 00:26:16;;;;;;;10.15;8.80;;;18.90;99.90;;;;;;4996125;28;20043;-67
2021/07/12 00:28:42;;;;;;;10.25;8.60;;;;;;;;;;5002200;28;20515;-67
2021/07/12 00:31:09;;;;;;;10.77;9.77;;;18.80;99.90;;;;;;4991667;28;20050;-67
2021/07/12 00:33:34;;;;;;;12.05;10.05;;;18.70;99.90;;;;;;4995633;28;20070;-68
2021/07/12 00:36:00;;;;;;;10.82;9.73;;;18.70;99.90;;;;;;4988574;28;20051;-68
2021/07/12 00:38:26;;;;;;;10.18;9.07;;;18.60;99.90;;;;;;4995463;28;20106;-67
2021/07/12 00:40:52;;;;;;;11.50;10.30;;;18.60;99.90;;;;;;4994360;28;20073;-68
2021/07/12 00:43:18;;;;;;;12.23;11.05;;;18.60;99.90;;;;;;5003481;28;20051;-68
2021/07/12 00:45:44;;;;;;;12.13;10.88;;;18.50;99.90;;;;;;4988460;28;20046;-67
2021/07/12 00:48:10;;;;;;;11.40;10.30;;;18.50;99.90;;;;;;4995553;28;20351;-68
2021/07/12 00:50:39;;;;;;;12.57;11.27;;;18.50;99.90;;;;;;5001957;28;20046;-67
2021/07/12 00:53:09;;;;;;;11.55;10.45;;;18.50;99.90;;;;;;5006606;28;20042;-68
2021/07/12 00:55:42;;;;;;;13.15;11.60;;;18.40;99.90;;;;;;4988579;28;20122;-68
2021/07/12 00:58:21;;;;;;;12.13;11.02;;;18.50;99.90;;;;;;4994596;28;20046;-67
2021/07/12 01:00:54;;;;;;;11.75;10.57;;;18.50;99.90;;;;;;4988579;28;20054;-68
2021/07/12 01:03:21;;;;;;;14.30;12.80;;;18.50;99.90;;;;;;4996107;28;20035;-67
2021/07/12 01:05:47;;;;;;;12.55;11.27;;;18.50;99.90;;;;;;5000568;28;20042;-67
2021/07/12 01:08:12;;;;;;;12.18;11.07;;;18.50;99.90;;;;;;5004039;28;20053;-67
2021/07/12 01:10:41;;;;;;;13.90;11.88;;;18.50;99.90;;;;;;4991275;28;20039;-68
2021/07/12 01:13:26;;;;;;;13.27;11.98;;;18.50;99.90;;;;;;4992738;28;20043;-67
2021/07/12 01:16:20;;;;;;;13.23;11.85;;;18.50;99.90;;;;;;4998801;28;20050;-67
2021/07/12 01:18:52;;;;;;;12.38;11.13;;;18.50;99.90;;;;;;5005417;28;20058;-67
2021/07/12 01:21:48;;;;;;;14.07;11.82;;;18.50;99.90;;;;;;5000097;28;20094;-67
2021/07/12 01:24:49;;;;;;;12.75;11.38;;;18.50;99.90;;;;;;4997424;28;20060;-67
2021/07/12 01:27:53;;;;;;;14.43;12.93;;;18.60;99.90;;;;;;4996259;28;20074;-67
2021/07/12 01:31:04;;;;;;;14.73;13.15;;;18.60;99.90;;;;;;4987284;28;20054;-67
2021/07/12 01:33:47;;;;;;;14.25;12.85;;;18.60;99.90;;;;;;4992526;28;20042;-67
2021/07/12 01:36:21;;;;;;;16.48;14.73;;;18.60;99.90;;;;;;4998660;28;20078;-67
2021/07/12 01:39:08;;;;;;;16.10;12.90;;;18.70;99.90;;;;;;4994290;28;20120;-67
2021/07/12 01:41:33;;;;;;;15.68;13.02;;;18.70;99.90;;;;;;5002792;28;20060;-67
2021/07/12 01:44:19;;;;;;;14.63;13.13;;;18.60;99.90;;;;;;5001866;28;20125;-67
2021/07/12 01:47:04;;;;;;;13.88;12.48;;;18.70;99.90;;;;;;4995243;28;20562;-67
2021/07/12 01:49:54;;;;;;;15.40;13.63;;;18.80;99.90;;;;;;4997477;28;20038;-67
2021/07/12 01:52:51;;;;;;;15.23;13.32;;;18.70;99.90;;;;;;5000599;28;20054;-67
2021/07/12 01:56:08;;;;;;;15.45;13.68;;;18.70;99.90;;;;;;4999928;28;20071;-67
2021/07/12 01:58:44;;;;;;;15.57;13.90;;;18.70;99.90;;;;;;4963526;29;20059;-67
2021/07/12 02:01:12;;;;;;;17.40;13.80;;;18.70;99.90;;;;;;4963342;29;20330;-68
2021/07/12 02:03:39;;;;;;;15.05;12.90;;;18.70;99.90;;;;;;4961481;29;20055;-67
2021/07/12 02:06:07;;;;;;;14.07;12.55;;;18.70;99.90;;;;;;4950930;29;20648;-67
2021/07/12 02:08:36;;;;;;;15.68;13.77;;;18.70;99.90;;;;;;4950326;29;20440;-67
2021/07/12 02:11:04;;;;;;;15.82;14.23;;;18.60;99.90;;;;;;4962482;28;20125;-67
2021/07/12 02:13:32;;;;;;;15.75;14.18;;;18.60;99.90;;;;;;4963284;29;20106;-67
2021/07/12 02:16:02;;;;;;;14.38;12.88;;;18.60;99.90;;;;;;4950308;29;20066;-67
2021/07/12 02:18:32;;;;;;;14.18;12.68;;;18.50;99.90;;;;;;4955877;29;20054;-67
2021/07/12 02:20:59;;;;;;;16.40;13.98;;;18.50;99.90;;;;;;4949869;29;20079;-67
2021/07/12 02:23:26;;;;;;;15.88;14.27;;;18.50;99.90;;;;;;4962459;29;20051;-67
2021/07/12 02:25:54;;;;;;;14.27;12.88;;;18.40;99.90;;;;;;4964045;29;20491;-67
2021/07/12 02:28:21;;;;;;;14.25;12.93;;;18.40;99.90;;;;;;4963970;29;20073;-68
2021/07/12 02:30:47;;;;;;;16.17;14.35;;;18.40;99.90;;;;;;4962132;29;20071;-68
2021/07/12 02:33:15;;;;;;;17.67;13.82;;;18.30;99.90;;;;;;4968513;28;20042;-68
2021/07/12 02:35:41;;;;;;;;;;;18.30;99.90;;;;;;5004878;28;20069;-68
2021/07/12 02:38:08;;;;;;;16.27;14.43;;;18.20;99.90;;;;;;4995417;28;19957;-68
2021/07/12 02:40:34;;;;;;;18.17;16.33;;;18.20;99.90;;;;;;4998949;28;20441;-67
2021/07/12 02:43:01;;;;;;;17.33;14.48;;;18.10;99.90;;;;;;4996159;28;20073;-67
2021/07/12 02:45:30;;;;;;;17.50;15.73;;;18.10;99.90;;;;;;5003414;28;20096;-67
2021/07/12 02:47:56;;;;;;;21.00;17.40;;;18.10;99.90;;;;;;5004016;28;20047;-68
2021/07/12 02:50:22;;;;;;;19.02;16.70;;;18.00;99.90;;;;;;5003731;28;20050;-68
2021/07/12 02:52:48;;;;;;;19.85;17.73;;;17.90;99.90;;;;;;5001411;28;20050;-67
2021/07/12 02:55:14;;;;;;;18.60;16.70;;;17.90;99.90;;;;;;4994586;28;20423;-67
2021/07/12 02:57:41;;;;;;;20.17;17.90;;;17.90;99.90;;;;;;5002307;28;20054;-67
2021/07/12 03:00:09;;;;;;;22.75;20.35;;;17.80;99.90;;;;;;4992717;28;20084;-67
2021/07/12 03:02:35;;;;;;;21.83;19.10;;;17.80;99.90;;;;;;5003588;28;20038;-68
2021/07/12 03:05:02;;;;;;;25.23;18.52;;;17.80;99.90;;;;;;5003806;28;20088;-67
2021/07/12 03:07:43;;;;;;;21.13;18.83;;;17.70;99.90;;;;;;5003924;28;20053;-68
2021/07/12 03:10:16;;;;;;;20.85;18.38;;;17.70;99.90;;;;;;5003618;28;20049;-68
2021/07/12 03:12:49;;;;;;;22.90;19.23;;;17.70;99.90;;;;;;5002094;28;20053;-67
2021/07/12 03:15:19;;;;;;;21.42;18.88;;;17.70;99.90;;;;;;4991392;28;20042;-68
2021/07/12 03:17:50;;;;;;;20.08;17.75;;;17.70;99.90;;;;;;5003268;28;20081;-68
2021/07/12 03:20:17;;;;;;;19.42;17.40;;;17.70;99.90;;;;;;4995009;28;20038;-68
2021/07/12 03:22:52;;;;;;;22.52;18.25;;;17.80;99.90;;;;;;5002903;28;20446;-68
2021/07/12 03:25:23;;;;;;;19.60;17.30;;;17.80;99.90;;;;;;4999702;28;20047;-67
2021/07/12 03:27:56;;;;;;;20.85;17.73;;;17.80;99.90;;;;;;4996027;28;20145;-67
2021/07/12 03:30:24;;;;;;;21.92;19.50;;;17.90;99.90;;;;;;5000068;28;20134;-68
2021/07/12 03:32:50;;;;;;;20.67;18.58;;;17.90;99.90;;;;;;4993304;28;20042;-68
2021/07/12 03:35:17;;;;;;;21.95;18.50;;;18.00;99.90;;;;;;5003391;28;20069;-67
2021/07/12 03:37:43;;;;;;;21.35;19.05;;;18.00;99.90;;;;;;5003312;28;20118;-67
2021/07/12 03:40:10;;;;;;;21.02;18.65;;;18.00;99.90;;;;;;5003768;28;20146;-68
2021/07/12 03:42:37;;;;;;;23.70;17.95;;;18.00;99.90;;;;;;4989937;28;20049;-68
2021/07/12 03:45:05;;;;;;;20.48;18.02;;;18.00;99.90;;;;;;5003274;28;20073;-68
2021/07/12 03:47:36;;;;;;;20.50;17.65;;;18.10;99.90;;;;;;5002217;28;20050;-68
2021/07/12 03:50:13;;;;;;;20.08;17.90;;;18.10;99.90;;;;;;4990095;28;20049;-68
2021/07/12 03:52:43;;;;;;;20.30;18.20;;;18.10;99.90;;;;;;5003180;28;20053;-68
2021/07/12 03:55:10;;;;;;;20.88;17.55;;;18.10;99.90;;;;;;5003268;28;20042;-67
2021/07/12 03:57:37;;;;;;;20.23;17.92;;;18.10;99.90;;;;;;5002582;28;20078;-67
2021/07/12 04:00:05;;;;;;;20.33;16.63;;;18.20;99.90;;;;;;4996835;28;20073;-67
2021/07/12 04:02:31;;;;;;;19.85;17.75;;;18.20;99.90;;;;;;5002013;28;20141;-67
2021/07/12 04:04:57;;;;;;;18.60;16.67;;;18.20;99.90;;;;;;5002722;28;20078;-68
2021/07/12 04:07:23;;;;;;;17.48;15.63;;;18.20;99.90;;;;;;5003054;28;20049;-67
2021/07/12 04:09:48;;;;;;;22.25;17.27;;;18.30;99.90;;;;;;5003175;28;20050;-67
2021/07/12 04:12:22;;;;;;;17.73;15.80;;;18.40;99.90;;;;;;4991937;28;20051;-67
2021/07/12 04:14:49;;;;;;;17.48;15.68;;;18.30;99.90;;;;;;5000893;28;20065;-67
2021/07/12 04:17:15;;;;;;;23.25;19.05;;;18.30;99.90;;;;;;4994743;28;20046;-67
2021/07/12 04:19:41;;;;;;;23.30;18.58;;;18.30;99.90;;;;;;4991996;28;20045;-67
2021/07/12 04:22:07;;;;;;;20.20;18.10;;;18.30;99.90;;;;;;5003134;28;20046;-67
2021/07/12 04:24:32;;;;;;;19.35;17.00;;;18.30;99.90;;;;;;4989848;28;20138;-67
2021/07/12 04:26:59;;;;;;;21.52;17.90;;;18.30;99.90;;;;;;5002671;28;20053;-67
2021/07/12 04:29:28;;;;;;;19.75;17.65;;;18.30;99.90;;;;;;5002853;28;20058;-67
2021/07/12 04:31:55;;;;;;;20.05;17.95;;;18.30;99.90;;;;;;5000288;28;20117;-67
2021/07/12 04:34:21;;;;;;;19.70;17.65;;;18.30;99.90;;;;;;4995671;28;20046;-67
2021/07/12 04:36:47;;;;;;;20.25;18.08;;;18.30;99.90;;;;;;5006168;28;20068;-67
2021/07/12 04:39:12;;;;;;;22.80;18.73;;;18.30;99.90;;;;;;4996293;28;20545;-68
2021/07/12 04:41:38;;;;;;;20.35;18.15;;;18.40;99.90;;;;;;5002275;28;20062;-68
2021/07/12 04:44:04;;;;;;;21.13;18.88;;;18.40;99.90;;;;;;5002111;28;20043;-68
2021/07/12 04:46:30;;;;;;;22.70;19.05;;;18.30;99.90;;;;;;4996184;28;20042;-68
2021/07/12 04:48:56;;;;;;;21.67;19.45;;;18.30;99.90;;;;;;4998575;28;20096;-68
2021/07/12 04:51:22;;;;;;;30.02;19.88;;;18.30;99.90;;;;;;4995190;28;20575;-67
2021/07/12 04:53:48;;;;;;;23.05;20.70;;;18.30;99.90;;;;;;5001718;28;20117;-67
2021/07/12 04:56:13;;;;;;;23.25;20.75;;;18.30;99.90;;;;;;4989130;28;20189;-67
2021/07/12 04:58:45;;;;;;;24.55;21.67;;;18.20;99.90;;;;;;4999771;28;20043;-67
2021/07/12 05:01:11;;;;;;;24.95;20.23;;;18.20;99.90;;;;;;5000179;28;20094;-67
2021/07/12 05:03:37;;;;;;;24.73;21.65;;;18.30;99.90;;;;;;4998369;28;20106;-67
2021/07/12 05:06:03;;;;;;;25.38;20.90;;;18.30;99.90;;;;;;5000484;28;20052;-67
2021/07/12 05:08:29;;;;;;;24.30;21.05;;;18.30;99.90;;;;;;5005799;28;20047;-69
2021/07/12 05:10:56;;;;;;;24.85;21.38;;;18.30;99.90;;;;;;5005695;28;20046;-68
2021/07/12 05:13:22;;;;;;;24.33;20.75;;;18.30;99.90;;;;;;5006364;28;20049;-68
2021/07/12 05:15:48;;;;;;;24.95;21.38;;;18.40;99.90;;;;;;4992691;28;20042;-68
2021/07/12 05:18:14;;;;;;;25.13;22.52;;;18.50;99.90;;;;;;5000769;28;20045;-68
2021/07/12 05:20:40;;;;;;;23.42;20.92;;;18.60;99.90;;;;;;5002883;28;20042;-68
2021/07/12 05:23:05;;;;;;;24.48;20.02;;;18.60;99.90;;;;;;5000060;28;20050;-68
2021/07/12 05:25:31;;;;;;;24.55;22.05;;;18.80;99.90;;;;;;4998147;28;20073;-67
2021/07/12 05:27:57;;;;;;;25.63;21.45;;;18.80;99.90;;;;;;4995616;28;20047;-68
2021/07/12 05:30:24;;;;;;;25.20;22.60;;;18.80;99.90;;;;;;4997714;28;20046;-59
2021/07/12 05:32:50;;;;;;;28.00;23.90;;;18.90;99.90;;;;;;5005401;28;20070;-60
2021/07/12 05:35:16;;;;;;;23.58;19.27;;;18.90;99.90;;;;;;5003789;28;20049;-60
2021/07/12 05:37:42;;;;;;;23.40;20.88;;;19.00;99.90;;;;;;5005024;28;20069;-59
2021/07/12 05:40:08;;;;;;;31.73;27.02;;;19.10;99.90;;;;;;5003714;28;20097;-59
2021/07/12 05:42:35;;;;;;;27.20;23.58;;;19.10;99.90;;;;;;4991124;28;20042;-59
2021/07/12 05:45:01;;;;;;;28.13;23.65;;;19.20;99.90;;;;;;4992616;28;20050;-60
2021/07/12 05:47:26;;;;;;;26.02;21.38;;;19.30;99.90;;;;;;4996481;28;20047;-59
2021/07/12 05:49:53;;;;;;;23.42;19.55;;;19.40;99.90;;;;;;4992358;28;20069;-59
2021/07/12 05:52:18;;;;;;;22.30;19.90;;;19.80;99.90;;;;;;4994482;28;20038;-59
2021/07/12 05:54:45;;;;;;;28.33;23.60;;;19.90;99.90;;;;;;4996889;28;20058;-60
2021/07/12 05:57:11;;;;;;;18.88;16.85;;;20.00;99.90;;;;;;5001587;28;20109;-59
2021/07/12 05:59:37;;;;;;;26.15;23.33;;;20.10;99.90;;;;;;4991906;28;20088;-60
2021/07/12 06:02:04;;;;;;;29.25;23.15;;;20.00;99.90;;;;;;4997264;28;20051;-60
2021/07/12 06:04:30;;;;;;;24.73;22.23;;;20.00;99.90;;;;;;4991022;28;20046;-59
2021/07/12 06:06:56;;;;;;;31.55;24.20;;;20.10;99.90;;;;;;4998391;28;20334;-59
2021/07/12 06:09:21;;;;;;;24.02;20.75;;;20.00;99.90;;;;;;4996594;28;20425;-59
2021/07/12 06:11:47;;;;;;;20.85;18.60;;;20.20;99.90;;;;;;4999133;28;20097;-59
2021/07/12 06:14:13;;;;;;;26.25;21.77;;;20.30;99.90;;;;;;4995092;28;20102;-59
2021/07/12 06:16:39;;;;;;;19.02;17.02;;;20.50;99.90;;;;;;4988191;28;20035;-59
2021/07/12 06:19:04;;;;;;;21.75;19.40;;;20.60;99.90;;;;;;4986366;28;20057;-59
2021/07/12 06:21:30;;;;;;;17.02;15.32;;;20.70;99.90;;;;;;4997819;28;20038;-59
2021/07/12 06:23:56;;;;;;;23.00;19.10;;;20.80;99.90;;;;;;4999556;28;20058;-59
2021/07/12 06:26:22;;;;;;;22.90;20.17;;;20.60;99.90;;;;;;4998457;28;20590;-59
2021/07/12 06:28:48;;;;;;;20.52;16.90;;;20.70;99.90;;;;;;5002780;28;20174;-59
2021/07/12 06:31:14;;;;;;;23.58;16.42;;;20.90;99.90;;;;;;5003843;28;20283;-59
2021/07/12 06:33:42;;;;;;;16.38;14.43;;;20.90;99.90;;;;;;5003928;28;20106;-59
2021/07/12 06:36:08;;;;;;;18.30;16.38;;;21.00;99.90;;;;;;5003238;28;20056;-59
2021/07/12 06:38:35;;;;;;;17.38;15.13;;;21.10;99.90;;;;;;5004275;28;20053;-59
2021/07/12 06:41:00;;;;;;;14.10;12.55;;;21.20;99.90;;;;;;4991931;28;20050;-59
2021/07/12 06:43:26;;;;;;;19.83;13.80;;;21.30;99.90;;;;;;4997156;28;20053;-59
2021/07/12 06:45:52;;;;;;;18.08;15.35;;;21.20;99.90;;;;;;4997701;28;20061;-59
2021/07/12 06:48:18;;;;;;;16.90;14.30;;;21.20;99.90;;;;;;4998257;28;20272;-59
2021/07/12 06:50:44;;;;;;;16.27;13.85;;;21.20;99.90;;;;;;5003343;28;20666;-59
2021/07/12 06:53:09;;;;;;;15.25;13.27;;;21.10;99.90;;;;;;5002413;28;20046;-60
2021/07/12 06:55:35;;;;;;;17.15;14.40;;;21.30;99.90;;;;;;4985595;28;20054;-60
2021/07/12 06:58:04;;;;;;;15.43;13.73;;;21.40;99.90;;;;;;4990061;28;20564;-59
2021/07/12 07:00:33;;;;;;;15.02;13.52;;;21.40;99.90;;;;;;5003295;28;20496;-59
2021/07/12 07:03:00;;;;;;;17.35;15.55;;;21.40;99.90;;;;;;4989818;28;20486;-59
2021/07/12 07:05:27;;;;;;;;;;;21.20;99.90;;;;;;4985316;28;20077;-59
2021/07/12 07:07:53;;;;;;;16.02;14.43;;;21.10;99.90;;;;;;4991308;28;19925;-59
2021/07/12 07:10:19;;;;;;;12.93;11.55;;;21.20;99.90;;;;;;4998343;28;20062;-59
2021/07/12 07:12:45;;;;;;;15.55;12.93;;;21.40;99.90;;;;;;5004082;28;20054;-59
2021/07/12 07:15:12;;;;;;;13.10;10.75;;;21.50;99.90;;;;;;5003314;28;20117;-59
2021/07/12 07:17:37;;;;;;;14.90;12.35;;;21.70;99.90;;;;;;4995999;28;20126;-59
2021/07/12 07:20:05;;;;;;;11.63;10.43;;;21.80;99.90;;;;;;4999347;28;20438;-59
2021/07/12 07:22:31;;;;;;;14.95;11.35;;;22.30;99.90;;;;;;4998634;28;20054;-59
2021/07/12 07:24:57;;;;;;;10.63;9.55;;;22.40;99.90;;;;;;4989993;28;20142;-60
2021/07/12 07:27:23;;;;;;;12.15;10.85;;;22.70;99.90;;;;;;5000103;28;20135;-60
2021/07/12 07:29:49;;;;;;;10.95;9.80;;;22.60;99.90;;;;;;4992221;28;20042;-59
2021/07/12 07:32:15;;;;;;;8.93;8.02;;;22.80;99.90;;;;;;4993833;28;20050;-59
2021/07/12 07:34:42;;;;;;;9.95;8.10;;;23.00;99.90;;;;;;5000539;28;20052;-60
2021/07/12 07:37:08;;;;;;;10.80;8.67;;;23.40;99.90;;;;;;4991016;28;20050;-60
2021/07/12 07:39:35;;;;;;;10.77;9.63;;;23.60;99.90;;;;;;5001855;28;20313;-60
2021/07/12 07:42:01;;;;;;;8.00;7.20;;;23.60;99.90;;;;;;5002860;28;20317;-60
2021/07/12 07:44:26;;;;;;;10.07;6.90;;;23.70;99.90;;;;;;5003246;28;20309;-60
2021/07/12 07:46:52;;;;;;;9.93;8.50;;;23.90;99.90;;;;;;4992571;28;20070;-60
2021/07/12 07:49:18;;;;;;;10.57;8.95;;;24.00;99.90;;;;;;4996319;28;20074;-59
2021/07/12 07:51:44;;;;;;;11.93;10.85;;;24.00;99.90;;;;;;4998362;28;20054;-59
2021/07/12 07:54:11;;;;;;;9.43;8.52;;;23.70;99.90;;;;;;4986277;28;20045;-59
2021/07/12 07:56:37;;;;;;;11.13;9.20;;;23.90;99.90;;;;;;4988134;28;20046;-59
2021/07/12 07:59:07;;;;;;;10.93;9.93;;;23.60;99.90;;;;;;4995185;28;20046;-60
2021/07/12 08:01:33;;;;;;;10.40;9.07;;;23.40;99.90;;;;;;4990340;28;20042;-60
2021/07/12 08:03:59;;;;;;;9.32;8.43;;;23.50;99.90;;;;;;4990070;28;20042;-60
2021/07/12 08:06:26;;;;;;;14.25;8.07;;;23.40;99.90;;;;;;4988757;28;20046;-59
2021/07/12 08:08:52;;;;;;;9.57;8.63;;;23.30;99.90;;;;;;4994250;28;20051;-61
2021/07/12 08:11:17;;;;;;;8.90;7.35;;;23.30;99.90;;;;;;4998377;28;20038;-62
2021/07/12 08:13:43;;;;;;;8.13;7.10;;;23.50;99.90;;;;;;5004177;28;20057;-62
2021/07/12 08:16:09;;;;;;;10.25;9.18;;;23.70;99.90;;;;;;4989540;28;20431;-62
2021/07/12 08:18:35;;;;;;;8.50;7.60;;;24.00;99.90;;;;;;4997380;28;20070;-62
2021/07/12 08:21:02;;;;;;;8.10;7.30;;;24.30;99.90;;;;;;5001609;28;20058;-62
2021/07/12 08:23:27;;;;;;;9.77;7.73;;;24.10;99.90;;;;;;5003748;28;20089;-62
2021/07/12 08:25:53;;;;;;;8.30;7.50;;;24.00;99.90;;;;;;5003833;28;20392;-62
2021/07/12 08:28:19;;;;;;;7.80;7.07;;;24.10;99.90;;;;;;5005927;28;20042;-62
2021/07/12 08:30:46;;;;;;;7.20;6.50;;;24.30;99.90;;;;;;4998763;28;20135;-62
2021/07/12 08:33:12;;;;;;;7.38;6.35;;;24.30;99.90;;;;;;4999157;28;20046;-62
2021/07/12 08:35:38;;;;;;;10.75;7.57;;;24.40;99.90;;;;;;5000071;28;20053;-62
2021/07/12 08:38:05;;;;;;;7.85;6.95;;;24.50;99.90;;;;;;5001735;28;20525;-62
2021/07/12 08:40:32;;;;;;;8.90;7.30;;;24.10;99.90;;;;;;4996701;28;20046;-62
2021/07/12 08:42:59;;;;;;;7.30;6.60;;;23.90;99.90;;;;;;4995840;28;20125;-62
2021/07/12 08:45:27;;;;;;;7.70;6.88;;;23.80;99.90;;;;;;4997346;28;20050;-62
2021/07/12 08:47:53;;;;;;;10.23;7.07;;;23.70;99.90;;;;;;4993200;28;20046;-62
2021/07/12 08:50:20;;;;;;;7.95;6.40;;;23.70;99.90;;;;;;5000817;28;20058;-62
2021/07/12 08:52:48;;;;;;;7.72;6.93;;;23.90;99.90;;;;;;4998748;28;20042;-62
2021/07/12 08:55:14;;;;;;;7.70;6.88;;;23.80;99.90;;;;;;4998780;28;20057;-62
2021/07/12 08:57:54;;;;;;;8.30;6.78;;;23.80;99.90;;;;;;4997833;28;20059;-64
2021/07/12 09:00:34;;;;;;;7.20;6.50;;;23.80;99.90;;;;;;4998034;28;20058;-58
2021/07/12 09:03:18;;;;;;;8.35;7.65;;;23.80;99.90;;;;;;4989491;28;20070;-60
2021/07/12 09:05:52;;;;;;;9.30;8.38;;;24.00;99.90;;;;;;4996852;28;20065;-59
2021/07/12 09:08:38;;;;;;;9.98;7.95;;;24.10;99.90;;;;;;5001615;28;20062;-62
2021/07/12 09:11:11;;;;;;;8.32;7.45;;;24.10;99.90;;;;;;4989819;28;20106;-60
2021/07/12 09:13:52;;;;;;;11.02;9.82;;;24.20;99.90;;;;;;5004219;28;20120;-60
2021/07/12 09:16:43;;;;;;;10.65;9.63;;;24.20;99.90;;;;;;4999184;28;20118;-60
2021/07/12 09:19:29;;;;;;;10.40;9.40;;;24.00;99.90;;;;;;4991542;28;20043;-61
2021/07/12 09:22:07;;;;;;;12.00;8.80;;;23.90;99.90;;;;;;4994286;28;20050;-59
2021/07/12 09:24:45;;;;;;;10.68;9.60;;;24.20;99.90;;;;;;4996228;28;20058;-60
2021/07/12 09:27:15;;;;;;;8.35;6.88;;;24.10;99.90;;;;;;4995981;28;20133;-59
2021/07/12 09:29:42;;;;;;;9.27;8.38;;;24.30;99.90;;;;;;4988810;28;20123;-59
2021/07/12 09:32:12;;;;;;;9.80;8.77;;;24.40;99.90;;;;;;4997856;28;20073;-61
2021/07/12 09:34:38;;;;;;;10.05;9.13;;;24.60;99.90;;;;;;4992537;28;20042;-62
2021/07/12 09:37:07;;;;;;;10.50;9.43;;;24.70;99.90;;;;;;4990001;28;20057;-62
2021/07/12 09:39:40;;;;;;;10.18;9.07;;;24.80;99.90;;;;;;4991964;28;20051;-62
2021/07/12 09:42:11;;;;;;;11.40;9.35;;;25.00;99.90;;;;;;4986822;28;20054;-63
2021/07/12 09:44:44;;;;;;;10.27;8.82;;;25.00;99.90;;;;;;5001308;28;20156;-62
2021/07/12 09:47:22;;;;;;;10.50;9.50;;;24.90;99.90;;;;;;4989987;28;20065;-62
2021/07/12 09:49:50;;;;;;;10.30;9.30;;;24.80;99.90;;;;;;4992276;28;20083;-62
2021/07/12 09:52:20;;;;;;;12.00;9.98;;;24.80;99.90;;;;;;4991773;28;20092;-62
2021/07/12 09:54:48;;;;;;;11.75;10.55;;;24.70;99.90;;;;;;4996361;28;20058;-64
2021/07/12 09:57:15;;;;;;;10.40;8.98;;;24.50;99.90;;;;;;4992979;28;20043;-65
2021/07/12 10:00:03;;;;;;;10.85;9.82;;;24.70;99.90;;;;;;4989531;28;20137;-62
2021/07/12 10:02:33;;;;;;;10.80;9.70;;;24.50;99.90;;;;;;4997636;28;20426;-68
2021/07/12 10:05:02;;;;;;;11.15;10.00;;;24.60;99.90;;;;;;4990209;28;20047;-62
2021/07/12 10:07:28;;;;;;;11.88;10.68;;;24.40;99.90;;;;;;4988481;28;20039;-62
2021/07/12 10:09:55;;;;;;;12.40;11.18;;;24.20;99.90;;;;;;4996889;28;20050;-66
2021/07/12 10:12:20;;;;;;;11.48;10.38;;;24.30;99.90;;;;;;4996350;28;20053;-64
2021/07/12 10:14:46;;;;;;;13.60;10.02;;;24.30;99.90;;;;;;4992797;28;20046;-63
2021/07/12 10:17:13;;;;;;;12.73;10.30;;;24.40;99.90;;;;;;4995196;28;20058;-65
2021/07/12 10:19:40;;;;;;;10.85;9.35;;;24.10;99.90;;;;;;4996630;28;20051;-66
2021/07/12 10:22:07;;;;;;;8.25;7.25;;;24.40;99.90;;;;;;4993516;28;20057;-63
2021/07/12 10:25:10;;;;;;;10.15;9.15;;;24.80;99.90;;;;;;4990100;28;20065;-64
2021/07/12 10:27:56;;;;;;;11.77;10.55;;;25.30;99.90;;;;;;4947866;29;20439;-63
2021/07/12 10:30:49;;;;;;;13.15;11.60;;;25.30;99.90;;;;;;4937858;29;20109;-63
2021/07/12 10:33:16;;;;;;;9.60;8.73;;;25.20;99.90;;;;;;4937977;29;20571;-72
2021/07/12 10:35:52;;;;;;;11.93;10.63;;;25.50;99.90;;;;;;4940568;29;20344;-63
2021/07/12 10:38:19;;;;;;;10.93;9.80;;;25.70;99.90;;;;;;4942845;29;20055;-62
2021/07/12 10:40:46;;;;;;;10.13;9.13;;;;;;;;;;4942212;29;20143;-64
2021/07/12 10:43:12;;;;;;;9.38;8.38;;;26.00;99.90;;;;;;4940966;29;20119;-61
2021/07/12 10:45:39;;;;;;;11.02;10.02;;;26.20;99.90;;;;;;4943259;29;20063;-62
2021/07/12 10:48:08;;;;;;;10.88;9.82;;;26.00;99.90;;;;;;4941189;29;20049;-64
2021/07/12 10:50:42;;;;;;;10.60;9.65;;;25.80;99.90;;;;;;4941289;29;20103;-64
2021/07/12 10:53:14;;;;;;;12.82;10.70;;;26.00;99.90;;;;;;4940572;29;20070;-61
2021/07/12 10:55:45;;;;;;;11.43;9.23;;;25.50;99.90;;;;;;4940600;29;20055;-59
2021/07/12 10:58:26;;;;;;;10.68;9.35;;;25.50;99.90;;;;;;4942679;29;20055;-60
2021/07/12 11:00:57;;;;;;;11.23;10.02;;;25.60;99.90;;;;;;4942642;29;20051;-61
2021/07/12 11:03:49;;;;;;;10.90;9.65;;;25.40;99.90;;;;;;4949309;28;20066;-60
2021/07/12 11:06:27;;;;;;;9.65;8.75;;;25.30;99.90;;;;;;4992251;28;20085;-60
2021/07/12 11:08:55;;;;;;;12.30;10.88;;;25.60;99.90;;;;;;4988196;28;20070;-60
2021/07/12 11:11:20;;;;;;;13.25;11.55;;;25.40;99.90;;;;;;4994123;28;20046;-61
2021/07/12 11:14:00;;;;;;;12.10;10.70;;;25.30;99.90;;;;;;4986162;28;20057;-60
2021/07/12 11:16:35;;;;;;;13.93;10.40;;;25.40;99.90;;;;;;4990494;28;20058;-59
2021/07/12 11:19:24;;;;;;;11.13;8.85;;;25.40;99.90;;;;;;4994208;28;20042;-60
2021/07/12 11:21:51;;;;;;;11.65;10.52;;;25.50;99.90;;;;;;4985727;28;20038;-60
2021/07/12 11:24:20;;;;;;;12.95;11.18;;;25.40;99.90;;;;;;4991946;28;20423;-60
2021/07/12 11:27:05;;;;;;;13.25;10.10;;;25.30;99.90;;;;;;4998586;28;20057;-60
2021/07/12 11:29:34;;;;;;;12.95;11.65;;;25.30;99.90;;;;;;4993613;28;20047;-61
2021/07/12 11:32:03;;;;;;;15.43;12.43;;;25.10;99.90;;;;;;4986338;28;20050;-59
2021/07/12 11:34:35;;;;;;;15.13;12.35;;;25.10;99.90;;;;;;4992429;28;20039;-61
2021/07/12 11:37:16;;;;;;;14.13;11.85;;;25.50;99.90;;;;;;4992071;28;20047;-59
2021/07/12 11:39:50;;;;;;;15.75;13.20;;;25.10;99.90;;;;;;5003278;28;20049;-60
2021/07/12 11:42:19;;;;;;;12.68;11.48;;;25.30;99.90;;;;;;4987899;28;20054;-64
2021/07/12 11:44:49;;;;;;;12.95;11.75;;;25.40;99.90;;;;;;4993854;28;20047;-59
2021/07/12 11:47:28;;;;;;;14.80;12.85;;;25.50;99.90;;;;;;4994183;28;20039;-61
2021/07/12 11:49:57;;;;;;;14.80;13.30;;;25.40;99.90;;;;;;4985679;28;20115;-59
2021/07/12 11:52:23;;;;;;;13.43;12.02;;;25.30;99.90;;;;;;4998861;28;20042;-60
2021/07/12 11:54:58;;;;;;;13.20;11.90;;;25.60;99.90;;;;;;4995427;28;20086;-60
2021/07/12 11:57:24;;;;;;;13.23;11.50;;;25.60;99.90;;;;;;4988915;28;20564;-67
2021/07/12 11:59:50;;;;;;;15.68;13.10;;;25.70;99.90;;;;;;4991941;28;20094;-59
2021/07/12 12:02:17;;;;;;;13.65;12.25;;;25.60;99.90;;;;;;4990687;28;20113;-59
2021/07/12 12:04:55;;;;;;;14.48;13.00;;;25.50;99.90;;;;;;4985907;28;20047;-60
2021/07/12 12:07:40;;;;;;;13.13;11.73;;;26.10;99.90;;;;;;4997859;28;20072;-59
2021/07/12 12:10:08;;;;;;;11.30;10.15;;;26.00;99.90;;;;;;4989363;28;20058;-61
2021/07/12 12:12:43;;;;;;;14.57;11.77;;;26.60;99.90;;;;;;4998790;28;20053;-60
2021/07/12 12:15:21;;;;;;;14.88;13.30;;;26.50;99.90;;;;;;4989616;28;20114;-60
2021/07/12 12:18:04;;;;;;;15.50;13.90;;;26.10;99.90;;;;;;4987922;28;20046;-60
2021/07/12 12:20:51;;;;;;;16.35;13.10;;;25.90;99.90;;;;;;4992869;28;21591;-61
2021/07/12 12:23:19;;;;;;;17.05;15.35;;;25.70;99.90;;;;;;4991971;28;20050;-60
2021/07/12 12:25:46;;;;;;;15.98;14.27;;;25.80;99.90;;;;;;4990498;28;20059;-66
2021/07/12 12:28:23;;;;;;;18.95;16.17;;;25.70;99.90;;;;;;4999341;28;20054;-59
2021/07/12 12:30:49;;;;;;;17.17;15.43;;;25.50;99.90;;;;;;4990956;28;20046;-59
2021/07/12 12:33:15;;;;;;;16.85;15.15;;;25.80;99.90;;;;;;4984890;28;20087;-59
2021/07/12 12:35:41;;;;;;;16.13;14.57;;;26.10;99.90;;;;;;4989686;28;20123;-61
2021/07/12 12:38:15;;;;;;;16.38;14.77;;;26.40;99.90;;;;;;4996448;28;20050;-66
2021/07/12 12:40:43;;;;;;;15.35;13.85;;;27.00;99.90;;;;;;4986850;28;20047;-62
2021/07/12 12:43:18;;;;;;;15.88;13.95;;;28.60;99.90;;;;;;4997804;28;20065;-59
2021/07/12 12:45:47;;;;;;;15.85;13.95;;;28.60;99.90;;;;;;4990242;28;20050;-62
2021/07/12 12:48:40;;;;;;;20.55;18.55;;;28.60;99.90;;;;;;4988780;28;20049;-62